Time;durP1;ratioP1;P1;durP2;ratioP2;P2;SDS_P1;SDS_P2;PMS_P1;PMS_P2;Temp;Humidity;BMP_temperature;BMP_pressure;BME280_temperature;BME280_humidity;BME280_pressure;Samples;Min_cycle;Max_cycle;Signal;HPM_P1;HPM_P2
2024/03/15 00:00:00;;;;;;;2.00;1.60;;;22.10;55.80;;;;;;5029754;28;20454;-73
2024/03/15 00:02:26;;;;;;;2.67;2.30;;;22.10;55.90;;;;;;5029834;28;20600;-73
2024/03/15 00:04:52;;;;;;;2.23;1.57;;;22.10;55.90;;;;;;5029571;28;20512;-73
2024/03/15 00:07:19;;;;;;;3.10;1.90;;;22.10;55.80;;;;;;5029683;28;20417;-73
2024/03/15 00:09:45;;;;;;;2.60;2.07;;;22.10;55.90;;;;;;5011804;28;20494;-73
2024/03/15 00:12:11;;;;;;;3.13;2.13;;;22.10;55.90;;;;;;5029667;28;20406;-72
2024/03/15 00:14:37;;;;;;;2.00;1.80;;;22.10;55.80;;;;;;5029826;28;20446;-73
2024/03/15 00:17:03;;;;;;;1.93;1.73;;;22.10;55.80;;;;;;5029620;28;20406;-72
2024/03/15 00:19:29;;;;;;;1.73;1.30;;;22.10;55.80;;;;;;5029645;28;20456;-73
2024/03/15 00:21:54;;;;;;;2.07;1.77;;;22.10;55.80;;;;;;5029626;28;20410;-72
2024/03/15 00:24:20;;;;;;;1.90;1.50;;;22.10;55.80;;;;;;5029560;28;20226;-73
2024/03/15 00:26:46;;;;;;;2.50;1.50;;;22.10;55.80;;;;;;5011641;28;20226;-73
2024/03/15 00:29:12;;;;;;;2.70;2.00;;;22.10;55.80;;;;;;5029818;28;20543;-73
2024/03/15 00:31:41;;;;;;;1.67;1.50;;;22.10;55.80;;;;;;5032599;28;20176;-73
2024/03/15 00:34:07;;;;;;;1.73;1.63;;;22.00;55.80;;;;;;5033148;28;20430;-73
2024/03/15 00:36:33;;;;;;;2.30;1.50;;;22.10;55.80;;;;;;5033464;28;20989;-73
2024/03/15 00:38:59;;;;;;;1.83;1.43;;;22.10;55.80;;;;;;5033112;28;20500;-73
2024/03/15 00:41:25;;;;;;;1.53;1.43;;;22.10;55.80;;;;;;5033025;28;20422;-73
2024/03/15 00:43:54;;;;;;;2.30;1.67;;;22.10;56.40;;;;;;5032928;28;20438;-71
2024/03/15 00:46:22;;;;;;;2.27;1.93;;;22.00;55.80;;;;;;5014911;28;20643;-73
2024/03/15 00:48:48;;;;;;;3.10;1.70;;;22.00;55.80;;;;;;5032952;28;20411;-73
2024/03/15 00:51:14;;;;;;;2.13;1.63;;;22.00;55.80;;;;;;5033176;28;20917;-73
2024/03/15 00:53:40;;;;;;;2.13;1.63;;;22.10;55.80;;;;;;5033095;28;20476;-73
2024/03/15 00:56:06;;;;;;;2.07;1.70;;;22.00;55.70;;;;;;5032777;28;20306;-72
2024/03/15 00:58:33;;;;;;;1.83;1.50;;;22.00;55.70;;;;;;5032753;28;20972;-73
2024/03/15 01:01:00;;;;;;;1.57;1.40;;;22.00;55.80;;;;;;5014821;28;20418;-73
2024/03/15 01:03:26;;;;;;;1.43;1.30;;;22.00;55.70;;;;;;5032579;28;20414;-73
2024/03/15 01:05:53;;;;;;;1.93;1.70;;;22.00;55.70;;;;;;5032495;28;20462;-73
2024/03/15 01:08:18;;;;;;;2.73;1.97;;;22.00;55.70;;;;;;5032583;28;20410;-73
2024/03/15 01:10:47;;;;;;;2.03;1.73;;;22.00;55.70;;;;;;5032547;28;20421;-74
2024/03/15 01:13:13;;;;;;;2.80;2.27;;;22.00;55.70;;;;;;5014638;28;20270;-72
2024/03/15 01:15:39;;;;;;;2.10;1.90;;;22.00;55.70;;;;;;5032580;28;20478;-73
2024/03/15 01:18:05;;;;;;;2.17;1.60;;;22.00;56.30;;;;;;5032675;28;20422;-73
2024/03/15 01:20:32;;;;;;;1.83;1.30;;;22.00;55.70;;;;;;5032337;28;20476;-73
2024/03/15 01:22:58;;;;;;;1.90;1.50;;;22.00;55.70;;;;;;5032327;28;20176;-72
2024/03/15 01:25:24;;;;;;;1.40;1.30;;;22.00;55.80;;;;;;5032086;28;20465;-73
2024/03/15 01:27:50;;;;;;;2.40;1.53;;;22.00;55.80;;;;;;5032440;28;20182;-73
2024/03/15 01:30:15;;;;;;;1.70;1.60;;;22.00;55.80;;;;;;5032229;28;20494;-72
2024/03/15 01:32:41;;;;;;;1.43;1.33;;;22.00;55.80;;;;;;5032117;28;20222;-73
2024/03/15 01:35:07;;;;;;;1.63;1.50;;;22.00;55.80;;;;;;5030616;28;20199;-74
2024/03/15 01:37:32;;;;;;;3.00;1.97;;;22.00;55.80;;;;;;5032095;28;20184;-73
2024/03/15 01:39:59;;;;;;;1.40;1.30;;;22.00;55.80;;;;;;5032055;28;20413;-73
2024/03/15 01:42:24;;;;;;;2.10;1.70;;;22.00;55.80;;;;;;5031843;28;20184;-73
2024/03/15 01:44:55;;;;;;;3.13;1.60;;;22.00;55.80;;;;;;5031641;28;20550;-73
2024/03/15 01:47:25;;;;;;;1.77;1.50;;;22.00;55.80;;;;;;5031859;28;20172;-73
2024/03/15 01:49:53;;;;;;;1.90;1.63;;;22.00;55.80;;;;;;5031828;28;20423;-72
2024/03/15 01:52:20;;;;;;;2.07;1.87;;;22.00;55.80;;;;;;5031770;28;20449;-73
2024/03/15 01:54:46;;;;;;;2.17;1.97;;;22.00;55.80;;;;;;5031569;28;20438;-74
2024/03/15 01:57:13;;;;;;;1.83;1.53;;;22.00;55.90;;;;;;5014323;28;20426;-72
2024/03/15 01:59:39;;;;;;;1.60;1.50;;;22.00;55.80;;;;;;5031587;28;20784;-73
2024/03/15 02:02:05;;;;;;;2.23;1.77;;;22.00;55.80;;;;;;5031537;28;20419;-72
2024/03/15 02:04:31;;;;;;;1.93;1.73;;;22.00;55.80;;;;;;5031489;28;20206;-73
2024/03/15 02:06:57;;;;;;;1.80;1.60;;;22.00;55.80;;;;;;5031637;28;20552;-73
2024/03/15 02:09:24;;;;;;;1.70;1.50;;;22.00;55.80;;;;;;5031472;28;20179;-73
2024/03/15 02:11:51;;;;;;;1.60;1.50;;;22.00;55.80;;;;;;5031335;28;20406;-71
2024/03/15 02:14:16;;;;;;;1.87;1.50;;;21.90;55.70;;;;;;5031244;28;20441;-73
2024/03/15 02:16:42;;;;;;;1.63;1.53;;;22.00;55.80;;;;;;5031340;28;20418;-73
2024/03/15 02:19:09;;;;;;;1.97;1.70;;;22.00;55.80;;;;;;5031195;28;20175;-73
2024/03/15 02:21:35;;;;;;;1.80;1.67;;;21.90;55.70;;;;;;5031151;28;20654;-73
2024/03/15 02:24:01;;;;;;;1.73;1.40;;;21.90;55.70;;;;;;5031070;28;20492;-73
2024/03/15 02:26:27;;;;;;;1.63;1.40;;;21.90;55.70;;;;;;5013253;28;20262;-73
2024/03/15 02:28:53;;;;;;;2.33;1.70;;;21.90;55.70;;;;;;5031149;28;20910;-73
2024/03/15 02:31:21;;;;;;;2.20;1.40;;;21.90;55.70;;;;;;5031104;28;20222;-73
2024/03/15 02:33:47;;;;;;;1.70;1.60;;;21.90;55.70;;;;;;5030846;28;20999;-72
2024/03/15 02:36:15;;;;;;;1.73;1.57;;;21.90;55.70;;;;;;5013144;28;20419;-71
2024/03/15 02:38:41;;;;;;;1.80;1.40;;;21.90;55.70;;;;;;5030919;28;20421;-73
2024/03/15 02:41:09;;;;;;;1.87;1.60;;;21.90;55.70;;;;;;5030808;28;20426;-73
2024/03/15 02:43:38;;;;;;;1.53;1.43;;;21.90;55.70;;;;;;5030840;28;20440;-73
2024/03/15 02:46:05;;;;;;;1.50;1.40;;;21.90;55.70;;;;;;5030554;28;20469;-73
2024/03/15 02:48:32;;;;;;;2.77;1.57;;;21.90;55.70;;;;;;5030765;28;20453;-73
2024/03/15 02:50:58;;;;;;;1.40;1.20;;;21.90;55.70;;;;;;5013039;28;20411;-71
2024/03/15 02:53:25;;;;;;;2.00;1.30;;;21.90;55.80;;;;;;5012330;28;20809;-73
2024/03/15 02:55:50;;;;;;;1.80;1.40;;;21.90;55.70;;;;;;5030547;28;20442;-73
2024/03/15 02:58:18;;;;;;;1.97;1.53;;;21.90;55.80;;;;;;5030544;28;20845;-74
2024/03/15 03:00:46;;;;;;;1.67;1.57;;;21.90;55.80;;;;;;5030471;28;20198;-73
2024/03/15 03:03:11;;;;;;;1.60;1.40;;;21.90;55.70;;;;;;5030446;28;20476;-71
2024/03/15 03:05:37;;;;;;;1.27;1.17;;;21.90;55.70;;;;;;5030283;28;20458;-73
2024/03/15 03:08:04;;;;;;;1.60;1.30;;;21.90;55.80;;;;;;5030396;28;20418;-73
2024/03/15 03:10:30;;;;;;;2.20;1.50;;;21.90;55.70;;;;;;5030422;28;20241;-73
2024/03/15 03:12:56;;;;;;;1.50;1.23;;;21.90;55.70;;;;;;5030366;28;20894;-72
2024/03/15 03:15:22;;;;;;;2.03;1.50;;;21.90;55.70;;;;;;5030552;28;20207;-73
2024/03/15 03:17:47;;;;;;;1.73;1.37;;;21.90;55.70;;;;;;5030322;28;20417;-70
2024/03/15 03:20:20;;;;;;;1.60;1.50;;;21.90;55.70;;;;;;5030310;28;20179;-73
2024/03/15 03:22:51;;;;;;;1.97;1.40;;;21.90;55.70;;;;;;5012546;28;20562;-73
2024/03/15 03:25:18;;;;;;;1.53;1.43;;;21.90;55.70;;;;;;5030047;28;20454;-73
2024/03/15 03:27:43;;;;;;;1.67;1.20;;;21.90;55.70;;;;;;5030124;28;20415;-72
2024/03/15 03:30:09;;;;;;;1.97;1.77;;;21.90;55.70;;;;;;5030194;28;20411;-73
2024/03/15 03:32:39;;;;;;;1.37;1.23;;;21.90;55.70;;;;;;5012300;28;20554;-73
2024/03/15 03:35:05;;;;;;;2.20;1.40;;;21.90;55.70;;;;;;5030301;28;20237;-73
2024/03/15 03:37:32;;;;;;;1.47;1.37;;;21.90;55.70;;;;;;5030390;28;20488;-73
2024/03/15 03:39:58;;;;;;;1.70;1.40;;;21.90;55.70;;;;;;5030115;28;20176;-73
2024/03/15 03:42:25;;;;;;;1.40;1.10;;;21.90;55.70;;;;;;5030093;28;20415;-73
2024/03/15 03:44:51;;;;;;;2.00;1.50;;;21.90;55.70;;;;;;5029822;28;20678;-73
2024/03/15 03:47:16;;;;;;;1.47;1.30;;;21.90;55.80;;;;;;5012221;28;20419;-73
2024/03/15 03:49:42;;;;;;;2.10;1.73;;;21.90;55.70;;;;;;5030030;28;20671;-73
2024/03/15 03:52:07;;;;;;;1.77;1.43;;;21.90;55.80;;;;;;5029960;28;20168;-73
2024/03/15 03:54:33;;;;;;;1.60;1.43;;;21.90;55.80;;;;;;5029885;28;20222;-73
2024/03/15 03:56:59;;;;;;;1.60;1.50;;;21.90;55.80;;;;;;5029916;28;20172;-73
2024/03/15 03:59:27;;;;;;;1.87;1.37;;;21.90;55.80;;;;;;5012070;28;20418;-73
2024/03/15 04:01:53;;;;;;;1.47;1.30;;;21.90;55.80;;;;;;5029969;28;20163;-73
2024/03/15 04:04:21;;;;;;;1.50;1.30;;;21.90;55.80;;;;;;5031081;28;20440;-73
2024/03/15 04:06:50;;;;;;;1.33;1.20;;;21.90;55.80;;;;;;5033731;28;20215;-73
2024/03/15 04:09:21;;;;;;;1.60;1.20;;;21.90;55.80;;;;;;5033760;28;20410;-73
2024/03/15 04:11:47;;;;;;;1.90;1.40;;;21.90;55.80;;;;;;5033733;28;20490;-73
2024/03/15 04:14:16;;;;;;;1.10;0.93;;;21.90;55.80;;;;;;5033993;28;20525;-73
2024/03/15 04:16:44;;;;;;;1.37;1.27;;;21.90;55.80;;;;;;5033695;28;20809;-73
2024/03/15 04:19:10;;;;;;;1.40;1.20;;;21.90;55.70;;;;;;5033591;28;20406;-73
2024/03/15 04:21:36;;;;;;;1.53;1.40;;;21.90;55.70;;;;;;5033930;28;20440;-72
2024/03/15 04:24:03;;;;;;;2.07;1.53;;;21.90;55.70;;;;;;5033782;28;20566;-73
2024/03/15 04:26:31;;;;;;;1.87;1.40;;;21.90;55.70;;;;;;5033386;28;20536;-73
2024/03/15 04:28:57;;;;;;;1.73;1.27;;;21.80;55.70;;;;;;5033491;28;20916;-73
2024/03/15 04:31:23;;;;;;;2.17;1.50;;;21.90;55.70;;;;;;5033509;28;20402;-73
2024/03/15 04:33:52;;;;;;;1.70;1.40;;;21.90;55.70;;;;;;5033376;28;20422;-73
2024/03/15 04:36:17;;;;;;;1.50;1.20;;;21.80;55.60;;;;;;5033227;28;20909;-73
2024/03/15 04:38:43;;;;;;;1.63;1.20;;;21.80;55.60;;;;;;5033257;28;20417;-73
2024/03/15 04:41:09;;;;;;;1.40;1.10;;;21.80;55.70;;;;;;5033282;28;20735;-75
2024/03/15 04:43:36;;;;;;;1.50;1.40;;;21.90;55.70;;;;;;5033104;28;20527;-73
2024/03/15 04:46:03;;;;;;;1.63;1.40;;;21.80;55.70;;;;;;5032888;28;20231;-73
2024/03/15 04:48:29;;;;;;;1.80;1.40;;;21.80;55.70;;;;;;5034646;28;20845;-73
2024/03/15 04:50:55;;;;;;;1.70;1.20;;;21.80;55.70;;;;;;5033030;28;20603;-73
2024/03/15 04:53:20;;;;;;;1.30;1.10;;;21.80;55.70;;;;;;5033131;28;20406;-73
2024/03/15 04:55:46;;;;;;;1.40;1.30;;;21.80;55.70;;;;;;5032820;28;20960;-73
2024/03/15 04:58:11;;;;;;;1.40;1.20;;;21.80;55.70;;;;;;5032928;28;20179;-73
2024/03/15 05:00:37;;;;;;;1.73;1.43;;;21.80;55.70;;;;;;5032939;28;20179;-73
2024/03/15 05:03:03;;;;;;;1.80;1.50;;;21.80;55.70;;;;;;5032896;28;20612;-73
2024/03/15 05:05:29;;;;;;;1.50;1.40;;;21.80;55.70;;;;;;5032904;28;20203;-73
2024/03/15 05:07:56;;;;;;;1.73;1.57;;;21.80;55.80;;;;;;5032867;28;20921;-73
2024/03/15 05:10:22;;;;;;;2.03;1.23;;;21.80;55.80;;;;;;5032782;28;20417;-73
2024/03/15 05:12:51;;;;;;;2.00;1.80;;;21.90;55.90;;;;;;5032712;28;20917;-73
2024/03/15 05:15:17;;;;;;;1.63;1.40;;;21.90;55.80;;;;;;5032558;28;20442;-73
2024/03/15 05:17:42;;;;;;;1.50;1.40;;;21.90;55.80;;;;;;5032198;28;20410;-73
2024/03/15 05:20:12;;;;;;;1.87;1.37;;;21.80;55.80;;;;;;5032452;28;20436;-72
2024/03/15 05:22:39;;;;;;;1.50;1.30;;;21.90;55.90;;;;;;5032380;28;20256;-73
2024/03/15 05:25:09;;;;;;;1.60;1.50;;;21.90;55.80;;;;;;5032642;28;20545;-73
2024/03/15 05:27:34;;;;;;;2.97;2.10;;;21.90;55.80;;;;;;5032441;28;20473;-73
2024/03/15 05:30:00;;;;;;;2.40;2.20;;;21.90;55.70;;;;;;5032582;28;20435;-73
2024/03/15 05:32:28;;;;;;;2.60;2.40;;;21.90;55.70;;;;;;5032667;28;20179;-73
2024/03/15 05:34:54;;;;;;;2.90;2.67;;;21.90;55.70;;;;;;5032229;28;20694;-73
2024/03/15 05:37:20;;;;;;;2.20;1.97;;;21.90;55.70;;;;;;5032060;28;20419;-73
2024/03/15 05:39:45;;;;;;;2.10;1.90;;;21.90;55.70;;;;;;5032268;28;20410;-73
2024/03/15 05:42:11;;;;;;;2.00;1.80;;;21.90;55.70;;;;;;5032158;28;20805;-73
2024/03/15 05:44:37;;;;;;;1.80;1.53;;;21.90;55.70;;;;;;5014072;28;20280;-72
2024/03/15 05:47:02;;;;;;;2.07;1.80;;;21.90;55.70;;;;;;5032051;28;20231;-73
2024/03/15 05:49:28;;;;;;;2.70;1.77;;;21.90;55.70;;;;;;5031976;28;20202;-73
2024/03/15 05:51:54;;;;;;;3.00;1.93;;;21.90;55.70;;;;;;5032012;28;20176;-73
2024/03/15 05:54:19;;;;;;;2.13;1.70;;;21.90;55.70;;;;;;5031815;28;20433;-74
2024/03/15 05:56:45;;;;;;;1.90;1.70;;;21.90;55.80;;;;;;5031813;28;20188;-70
2024/03/15 05:59:11;;;;;;;2.47;1.83;;;21.90;55.70;;;;;;5032070;28;20180;-73
2024/03/15 06:01:39;;;;;;;2.43;2.20;;;21.90;55.70;;;;;;5031748;28;20186;-73
2024/03/15 06:04:05;;;;;;;2.67;1.80;;;21.90;55.70;;;;;;5013679;28;20450;-73
2024/03/15 06:06:31;;;;;;;1.80;1.70;;;21.90;55.70;;;;;;5031578;28;20519;-73
2024/03/15 06:08:57;;;;;;;1.90;1.70;;;21.90;55.70;;;;;;5031656;28;20414;-72
2024/03/15 06:11:23;;;;;;;2.43;1.80;;;21.90;55.70;;;;;;5031725;28;20809;-72
2024/03/15 06:13:48;;;;;;;2.37;1.80;;;21.90;55.70;;;;;;5031150;28;20928;-72
2024/03/15 06:16:16;;;;;;;1.60;1.50;;;21.90;55.70;;;;;;5030516;28;20180;-71
2024/03/15 06:18:42;;;;;;;4.37;1.93;;;22.00;55.80;;;;;;5032771;28;20203;-73
2024/03/15 06:21:10;;;;;;;3.53;2.00;;;22.00;55.80;;;;;;5031651;28;20419;-72
2024/03/15 06:23:36;;;;;;;2.43;1.40;;;22.00;55.90;;;;;;5031142;28;20501;-72
2024/03/15 06:26:04;;;;;;;2.17;1.60;;;22.00;55.80;;;;;;5031341;28;21032;-73
2024/03/15 06:28:30;;;;;;;5.63;2.03;;;22.00;55.80;;;;;;5031179;28;20168;-72
2024/03/15 06:30:56;;;;;;;3.67;1.80;;;22.00;56.40;;;;;;5031084;28;20406;-73
2024/03/15 06:33:28;;;;;;;2.60;1.87;;;22.00;55.80;;;;;;5030996;28;20242;-72
2024/03/15 06:35:55;;;;;;;2.90;2.00;;;22.00;55.90;;;;;;5031295;28;20805;-73
2024/03/15 06:41:13;;;;;;;3.70;2.17;;;22.00;55.90;;;;;;5030925;28;20625;-73
2024/03/15 06:43:58;;;;;;;2.50;2.20;;;22.00;55.90;;;;;;5030865;28;20485;-72
2024/03/15 06:46:41;;;;;;;5.10;2.13;;;22.00;55.90;;;;;;5030780;28;20458;-73
2024/03/15 06:49:13;;;;;;;2.10;1.60;;;22.00;55.90;;;;;;5030807;28;20395;-72
2024/03/15 06:54:26;;;;;;;3.17;1.97;;;22.00;55.90;;;;;;5030880;28;20510;-73
2024/03/15 06:56:52;;;;;;;2.33;1.33;;;22.00;55.90;;;;;;5030584;28;20457;-73
2024/03/15 06:59:18;;;;;;;3.00;1.87;;;22.00;55.90;;;;;;5030609;28;20909;-72
2024/03/15 07:01:44;;;;;;;2.73;1.93;;;22.00;55.90;;;;;;5030513;28;20441;-73
2024/03/15 07:04:10;;;;;;;2.97;1.60;;;22.00;55.90;;;;;;5030473;28;20195;-72
2024/03/15 07:06:36;;;;;;;3.77;1.70;;;22.00;55.90;;;;;;5030403;28;20462;-73
2024/03/15 07:09:05;;;;;;;2.40;1.80;;;22.00;55.90;;;;;;5030672;28;20175;-72
2024/03/15 07:11:33;;;;;;;2.10;1.80;;;22.00;55.80;;;;;;5030396;28;20688;-73
2024/03/15 07:14:02;;;;;;;2.70;1.40;;;22.00;56.40;;;;;;5030504;28;20434;-72
2024/03/15 07:16:29;;;;;;;2.70;1.73;;;22.00;55.90;;;;;;5030303;28;20409;-72
2024/03/15 07:18:59;;;;;;;2.17;1.70;;;22.10;55.90;;;;;;5030178;28;20426;-71
2024/03/15 07:21:25;;;;;;;2.50;1.70;;;22.10;55.90;;;;;;5030250;28;20411;-71
2024/03/15 07:23:50;;;;;;;1.70;1.43;;;22.10;55.90;;;;;;5030119;28;20433;-73
2024/03/15 07:26:16;;;;;;;2.40;2.00;;;22.10;55.90;;;;;;5030121;28;20611;-73
2024/03/15 07:28:42;;;;;;;2.90;1.53;;;22.10;55.90;;;;;;5030112;28;20550;-73
2024/03/15 07:31:08;;;;;;;3.07;2.00;;;22.10;55.90;;;;;;5030147;28;20189;-72
2024/03/15 07:33:34;;;;;;;5.00;1.77;;;22.10;55.90;;;;;;5030041;28;21020;-72
2024/03/15 07:36:01;;;;;;;4.20;1.90;;;22.10;55.90;;;;;;5030339;28;20422;-73
2024/03/15 07:38:27;;;;;;;1.93;1.63;;;22.10;55.90;;;;;;5011903;28;20175;-72
2024/03/15 07:40:55;;;;;;;5.40;2.03;;;22.10;55.90;;;;;;5029852;28;20422;-73
2024/03/15 07:43:21;;;;;;;2.43;1.63;;;22.10;55.90;;;;;;5029882;28;20905;-72
2024/03/15 07:45:48;;;;;;;2.10;1.40;;;22.10;55.90;;;;;;5029675;28;20504;-72
2024/03/15 07:48:16;;;;;;;3.90;2.20;;;22.10;56.00;;;;;;5030005;28;20266;-73
2024/03/15 07:50:43;;;;;;;1.90;1.47;;;22.10;55.90;;;;;;5030194;28;20406;-72
2024/03/15 07:53:08;;;;;;;2.23;1.40;;;22.10;55.90;;;;;;5030138;28;20423;-73
2024/03/15 07:55:37;;;;;;;2.83;1.90;;;22.10;55.90;;;;;;5029753;28;20441;-72
2024/03/15 07:58:03;;;;;;;2.80;1.70;;;22.10;55.90;;;;;;5029832;28;20210;-73
2024/03/15 08:00:32;;;;;;;2.30;1.90;;;22.10;55.90;;;;;;5012022;28;20823;-72
2024/03/15 08:02:57;;;;;;;3.03;1.70;;;22.10;56.00;;;;;;5029786;28;20176;-73
2024/03/15 08:05:26;;;;;;;3.00;1.87;;;22.10;55.90;;;;;;5029608;28;20899;-73
2024/03/15 08:07:51;;;;;;;2.37;2.10;;;22.10;55.90;;;;;;5029775;28;20182;-72
2024/03/15 08:10:18;;;;;;;2.00;1.70;;;22.20;56.00;;;;;;5029709;28;20497;-72
2024/03/15 08:12:43;;;;;;;3.13;1.67;;;22.10;55.90;;;;;;5011815;28;20183;-72
2024/03/15 08:15:09;;;;;;;1.77;1.50;;;22.20;56.00;;;;;;5029620;28;20492;-73
2024/03/15 08:17:35;;;;;;;2.13;1.30;;;22.20;56.00;;;;;;5029662;28;20647;-71
2024/03/15 08:20:05;;;;;;;4.77;1.70;;;22.20;56.00;;;;;;5029887;28;20179;-72
2024/03/15 08:22:33;;;;;;;3.43;2.07;;;22.20;56.00;;;;;;5029632;28;20419;-71
2024/03/15 08:24:58;;;;;;;2.03;1.57;;;22.20;56.00;;;;;;5029734;28;20914;-72
2024/03/15 08:27:29;;;;;;;1.70;1.60;;;22.20;56.00;;;;;;5029564;28;20564;-72
2024/03/15 08:29:56;;;;;;;1.70;1.57;;;22.20;56.00;;;;;;5029580;28;20179;-72
2024/03/15 08:32:22;;;;;;;2.43;1.50;;;22.20;56.00;;;;;;5011730;28;20427;-73
2024/03/15 08:34:47;;;;;;;2.53;1.33;;;22.20;55.90;;;;;;5029368;28;20432;-72
2024/03/15 08:37:13;;;;;;;2.67;1.77;;;22.20;56.00;;;;;;5029534;28;20461;-73
2024/03/15 08:39:39;;;;;;;2.07;1.50;;;22.20;56.00;;;;;;5029454;28;20176;-72
2024/03/15 08:42:04;;;;;;;3.00;1.60;;;22.20;55.90;;;;;;5029433;28;20262;-73
2024/03/15 08:44:32;;;;;;;2.87;1.60;;;22.20;56.00;;;;;;5029444;28;20230;-73
2024/03/15 08:46:57;;;;;;;1.50;1.30;;;22.20;55.90;;;;;;5029331;28;20223;-72
2024/03/15 08:49:26;;;;;;;2.03;1.60;;;22.20;55.90;;;;;;5029327;28;20410;-73
2024/03/15 08:51:54;;;;;;;2.30;1.80;;;22.20;55.90;;;;;;5031251;28;20523;-73
2024/03/15 08:54:21;;;;;;;2.23;1.50;;;22.20;55.90;;;;;;5033103;28;21134;-73
2024/03/15 08:56:46;;;;;;;1.70;1.60;;;22.20;56.00;;;;;;5032800;28;20514;-72
2024/03/15 08:59:13;;;;;;;2.23;1.80;;;22.20;55.90;;;;;;5032777;28;20860;-73
2024/03/15 09:01:38;;;;;;;2.20;1.93;;;22.20;56.00;;;;;;5033067;28;20180;-73
2024/03/15 09:04:04;;;;;;;8.20;2.27;;;22.20;55.90;;;;;;5014738;28;20546;-73
2024/03/15 09:06:34;;;;;;;1.80;1.53;;;22.20;56.00;;;;;;5032473;28;20203;-70
2024/03/15 09:09:09;;;;;;;2.90;1.77;;;22.20;56.00;;;;;;5032545;28;20421;-71
2024/03/15 09:11:35;;;;;;;2.10;1.90;;;22.20;55.90;;;;;;5014648;28;20449;-72
2024/03/15 09:14:01;;;;;;;2.40;1.90;;;22.20;56.00;;;;;;5032349;28;20470;-72
2024/03/15 09:16:27;;;;;;;2.57;1.80;;;22.20;55.90;;;;;;5032381;28;20198;-72
2024/03/15 09:18:55;;;;;;;3.47;1.83;;;22.20;55.90;;;;;;5032409;28;20449;-71
2024/03/15 09:21:21;;;;;;;1.87;1.50;;;22.20;55.90;;;;;;5032531;28;20184;-71
2024/03/15 09:23:47;;;;;;;2.03;1.47;;;22.20;55.90;;;;;;5032183;28;20461;-71
2024/03/15 09:26:16;;;;;;;1.77;1.30;;;22.20;56.00;;;;;;5032126;28;20219;-70
2024/03/15 09:28:43;;;;;;;2.13;1.43;;;22.20;56.00;;;;;;5032213;28;20415;-72
2024/03/15 09:31:10;;;;;;;1.90;1.43;;;22.20;56.00;;;;;;5032063;28;20928;-70
2024/03/15 09:33:37;;;;;;;2.80;1.57;;;22.20;56.00;;;;;;5032004;28;20444;-70
2024/03/15 09:36:06;;;;;;;3.00;1.30;;;22.20;56.00;;;;;;5032062;28;20963;-71
2024/03/15 09:38:34;;;;;;;4.37;1.60;;;22.20;56.00;;;;;;5032000;28;20419;-71
2024/03/15 09:41:00;;;;;;;1.80;1.50;;;22.20;56.00;;;;;;5031923;28;20449;-71
2024/03/15 09:43:27;;;;;;;2.40;1.57;;;22.20;56.00;;;;;;5031877;28;20872;-70
2024/03/15 09:45:53;;;;;;;1.60;1.30;;;22.20;55.90;;;;;;5031772;28;20216;-70
2024/03/15 09:48:21;;;;;;;2.90;1.70;;;22.20;55.90;;;;;;5031812;28;20446;-71
2024/03/15 09:50:52;;;;;;;2.43;1.83;;;22.20;55.90;;;;;;5031706;28;20421;-71
2024/03/15 09:53:19;;;;;;;2.20;1.80;;;22.20;55.90;;;;;;5031742;28;20382;-70
2024/03/15 09:55:52;;;;;;;2.60;1.47;;;22.20;55.90;;;;;;5013795;28;20442;-71
2024/03/15 09:58:18;;;;;;;1.60;1.47;;;22.20;55.90;;;;;;5031600;28;20954;-71
2024/03/15 10:00:44;;;;;;;3.23;1.70;;;22.20;55.90;;;;;;5031579;28;20422;-72
2024/03/15 10:03:10;;;;;;;4.60;1.70;;;22.20;55.90;;;;;;5031306;28;20556;-70
2024/03/15 10:05:36;;;;;;;2.80;1.77;;;22.30;56.10;;;;;;5031307;28;20378;-71
2024/03/15 10:08:05;;;;;;;5.10;1.90;;;22.30;56.00;;;;;;5031511;28;20176;-71
2024/03/15 10:10:32;;;;;;;4.30;1.87;;;22.30;56.00;;;;;;5031440;28;20415;-72
2024/03/15 10:12:58;;;;;;;4.60;1.70;;;22.30;56.10;;;;;;5031545;28;20505;-71
2024/03/15 10:15:23;;;;;;;2.93;1.40;;;22.30;56.00;;;;;;5031236;28;20907;-71
2024/03/15 10:17:53;;;;;;;1.97;1.60;;;22.30;56.00;;;;;;5031456;28;20520;-70
2024/03/15 10:20:24;;;;;;;2.57;1.80;;;22.30;56.00;;;;;;5031214;28;20186;-70
2024/03/15 10:22:54;;;;;;;3.50;1.90;;;22.30;56.10;;;;;;5031487;28;20398;-71
2024/03/15 10:25:22;;;;;;;2.40;1.93;;;22.30;56.00;;;;;;5031210;28;20893;-70
2024/03/15 10:27:54;;;;;;;2.80;2.00;;;22.30;56.10;;;;;;5031023;28;20419;-71
2024/03/15 10:30:24;;;;;;;2.40;1.63;;;22.30;56.10;;;;;;5031067;28;20394;-70
2024/03/15 10:32:51;;;;;;;3.00;1.90;;;22.30;56.10;;;;;;5031312;28;20411;-71
2024/03/15 10:35:21;;;;;;;2.40;1.67;;;22.30;56.10;;;;;;5031171;28;20541;-71
2024/03/15 10:37:48;;;;;;;3.40;1.77;;;22.30;56.10;;;;;;5031148;28;20454;-71
2024/03/15 10:40:20;;;;;;;3.20;1.70;;;22.30;56.10;;;;;;5031039;28;20449;-71
2024/03/15 10:42:48;;;;;;;2.70;2.07;;;22.30;56.10;;;;;;5030774;28;20395;-70
2024/03/15 10:45:19;;;;;;;2.53;1.70;;;22.30;56.10;;;;;;5030512;28;20896;-70
2024/03/15 10:47:45;;;;;;;1.70;1.40;;;22.30;56.10;;;;;;5030746;28;20406;-70
2024/03/15 10:50:13;;;;;;;2.73;1.60;;;22.30;56.10;;;;;;5030729;28;20792;-71
2024/03/15 10:52:42;;;;;;;1.87;1.57;;;22.30;56.10;;;;;;5030563;28;20449;-70
2024/03/15 10:55:26;;;;;;;3.47;1.80;;;22.40;56.20;;;;;;5030463;28;20449;-72
2024/03/15 10:57:55;;;;;;;2.87;1.60;;;22.40;56.10;;;;;;5030559;28;20843;-71
2024/03/15 11:00:26;;;;;;;2.53;1.70;;;22.40;56.20;;;;;;5030533;28;20437;-72
2024/03/15 11:03:21;;;;;;;2.60;1.77;;;22.40;56.20;;;;;;5030553;28;20407;-71
2024/03/15 11:05:47;;;;;;;1.60;1.30;;;22.30;56.10;;;;;;5027245;28;20481;-70
2024/03/15 11:08:24;;;;;;;1.83;1.43;;;22.40;56.20;;;;;;5030385;28;20407;-71
2024/03/15 11:10:54;;;;;;;2.20;1.40;;;22.40;56.20;;;;;;5030343;28;20390;-71
2024/03/15 11:13:23;;;;;;;2.03;1.50;;;22.40;56.20;;;;;;5029884;28;20631;-70
2024/03/15 11:15:49;;;;;;;1.90;1.30;;;22.40;56.20;;;;;;5029970;28;20560;-71
2024/03/15 11:18:17;;;;;;;2.47;1.70;;;22.40;56.20;;;;;;5030191;28;20549;-71
2024/03/15 11:20:49;;;;;;;3.50;1.70;;;22.40;56.20;;;;;;5030256;28;20217;-71
2024/03/15 11:23:19;;;;;;;1.77;1.47;;;22.40;56.20;;;;;;5030020;28;20430;-71
2024/03/15 11:26:06;;;;;;;2.63;1.67;;;22.40;56.20;;;;;;5029946;28;20461;-69
2024/03/15 11:28:37;;;;;;;1.97;1.43;;;22.40;56.20;;;;;;5030162;28;20448;-71
2024/03/15 11:31:03;;;;;;;1.77;1.37;;;22.40;56.20;;;;;;5030086;28;20422;-71
2024/03/15 11:33:31;;;;;;;2.80;1.93;;;22.40;56.20;;;;;;5012097;28;20524;-71
2024/03/15 11:35:58;;;;;;;2.57;1.30;;;22.40;56.20;;;;;;5030047;28;20406;-71
2024/03/15 11:38:24;;;;;;;2.60;1.90;;;22.40;56.20;;;;;;5030021;28;20783;-71
2024/03/15 11:40:53;;;;;;;3.30;1.80;;;22.40;56.20;;;;;;5012119;28;20533;-72
2024/03/15 11:43:18;;;;;;;3.20;1.70;;;22.40;56.10;;;;;;5029821;28;20422;-72
2024/03/15 11:45:44;;;;;;;2.10;1.77;;;22.40;56.10;;;;;;5029726;28;20469;-71
2024/03/15 11:48:23;;;;;;;2.30;1.23;;;22.40;56.10;;;;;;5029923;28;20313;-71
2024/03/15 11:50:52;;;;;;;4.27;1.47;;;22.40;56.10;;;;;;5029947;28;20186;-71
2024/03/15 11:53:19;;;;;;;2.33;1.37;;;22.40;56.10;;;;;;5029855;28;20463;-71
2024/03/15 11:55:46;;;;;;;2.40;1.40;;;22.40;56.20;;;;;;5029961;28;20434;-71
2024/03/15 11:58:16;;;;;;;1.83;1.57;;;22.40;56.10;;;;;;5029825;28;20426;-70
2024/03/15 12:00:45;;;;;;;2.17;1.50;;;22.40;56.10;;;;;;5029710;28;20925;-70
2024/03/15 12:03:11;;;;;;;2.07;1.40;;;22.50;56.20;;;;;;5029796;28;20406;-69
2024/03/15 12:05:37;;;;;;;2.33;1.40;;;22.40;56.10;;;;;;5029573;28;20454;-71
2024/03/15 12:08:10;;;;;;;1.93;1.53;;;22.50;56.20;;;;;;5029734;28;20402;-69
2024/03/15 12:10:37;;;;;;;2.60;1.57;;;22.50;56.20;;;;;;5029687;28;20433;-71
2024/03/15 12:13:11;;;;;;;4.60;1.50;;;22.50;56.20;;;;;;5029708;28;21040;-71
2024/03/15 12:15:38;;;;;;;2.30;1.67;;;22.50;56.20;;;;;;5033089;28;20457;-71
2024/03/15 12:18:09;;;;;;;2.50;1.53;;;22.50;56.20;;;;;;5038313;28;20814;-70
2024/03/15 12:20:37;;;;;;;1.57;1.30;;;22.40;56.10;;;;;;5036282;28;20428;-71
2024/03/15 12:23:05;;;;;;;4.60;1.83;;;22.40;56.00;;;;;;5040179;28;20515;-70
2024/03/15 12:25:30;;;;;;;2.27;1.80;;;22.50;56.10;;;;;;5046117;28;20461;-71
2024/03/15 12:27:56;;;;;;;4.33;1.80;;;22.50;56.10;;;;;;5026240;28;20490;-70
2024/03/15 12:30:21;;;;;;;2.30;1.60;;;22.50;56.60;;;;;;5041256;28;20257;-70
2024/03/15 12:32:47;;;;;;;3.80;2.43;;;22.50;56.10;;;;;;5028737;28;20548;-71
2024/03/15 12:35:13;;;;;;;3.00;2.50;;;22.50;56.10;;;;;;5013320;28;20199;-71
2024/03/15 12:37:38;;;;;;;5.47;3.20;;;22.50;56.10;;;;;;5013359;28;20176;-71
2024/03/15 12:40:14;;;;;;;8.60;4.53;;;22.50;56.10;;;;;;5013552;28;20176;-70
2024/03/15 12:42:40;;;;;;;8.40;4.67;;;22.50;56.10;;;;;;5013313;28;20159;-71
2024/03/15 12:45:08;;;;;;;7.60;3.83;;;22.50;56.10;;;;;;5012954;28;21021;-71
2024/03/15 12:47:36;;;;;;;10.50;4.30;;;22.50;56.10;;;;;;4995493;28;20554;-71
2024/03/15 12:50:14;;;;;;;9.80;5.00;;;22.50;56.10;;;;;;5013108;28;20412;-71
2024/03/15 12:52:40;;;;;;;10.30;5.00;;;22.50;56.10;;;;;;5013372;28;20894;-71